Station: Cape Willoughby

  Atmospheric Gas Attenuation - ITU Rec 676-11   --------------- db/100km ---------------
Date Time Temp RH % AH g/m3 Dew Point Wind Direction Speed kph Gust kph Barometer mB Rainfall Since 9am 24GHz 47GHz 76GHz 122GHz 134GHz 241GHz
27 13:50 13.9 64 7.67 7.2 7 9 1013.1 0.2 17.6 24.4 36.1 94.5 86.2 295.8
27 13:40 14.3 65 7.99 7.8 9 11 1013.1 0.2 18.3 24.8 37.1 97.4 89.8 308.6
27 13:30 14.1 65 7.89 7.6 7 11 1026.4 0.2 18.0 25.2 37.4 97.9 89.8 308.2
27 13:20 13.8 65 7.74 7.3 6 7 1013.1 0.2 17.8 24.5 36.4 95.4 87.2 299.3
27 13:10 13.8 65 7.74 7.3 7 9 1013.1 0.2 17.8 24.5 36.4 95.4 87.2 299.3
27 13:00 14 65 7.84 7.5 9 15 1026.4 0.2 17.9 25.1 37.3 97.5 89.3 306.4
27 12:50 14 65 7.84 7.5 7 7 1013.1 0.2 18.0 24.6 36.7 96.2 88.3 303.0
27 12:40 13.9 64 7.67 7.2 11 13 1013.1 0.2 17.6 24.4 36.1 94.5 86.2 295.8
27 12:30 14.4 65 8.04 7.9 7 11 1026.7 0.2 18.4 25.3 37.9 99.1 91.4 313.9
27 12:20 14.1 64 7.77 7.4 7 7 1013.1 0.2 17.8 24.5 36.4 95.3 87.3 299.5
27 12:10 13.9 64 7.67 7.2 7 7 1013.1 0.2 17.6 24.4 36.1 94.5 86.2 295.8
27 12:00 13.5 65 7.6 7.1 6 9 1027 0.2 17.5 24.9 36.6 95.6 86.8 297.6
27 11:50 13.9 66 7.91 7.6 6 7 1013.1 0.2 18.1 24.8 37.0 97.0 89.3 306.6
27 11:40 14.1 66 8.01 8 6 7 1013.1 0.2 18.3 24.9 37.3 97.8 90.3 310.3
27 11:30 13.5 66 7.72 7.3 6 9 1027.2 0.2 17.7 25.1 37.1 96.9 88.3 303.0
27 11:20 13.5 65 7.6 7 6 6 1013.1 0.2 17.5 24.4 36.0 94.3 85.7 294.2
27 11:10 13.5 67 7.84 7.5 6 7 1013.1 0.2 18.0 24.8 36.9 96.8 88.8 304.9
27 11:00 13.5 66 7.72 7.3 6 7 1027.4 0.2 17.7 25.1 37.1 96.9 88.4 303.1
27 10:50 13.7 68 8.05 7.9 6 7 1013.1 0 18.4 25.0 37.7 98.7 91.3 313.7
27 10:40 13.3 66 7.63 7.1 4 6 1013.1 0 17.5 24.5 36.2 94.8 86.4 296.2
27 10:30 12.9 67 7.55 6.9 4 6 1027.7 0 17.4 25.0 36.7 95.9 86.8 297.7
27 10:20 13 68 7.71 7.2 4 4 1013.1 0 17.7 24.7 36.6 96.0 87.7 301.0
27 10:10 12.9 67 7.55 6.9 0 0 1013.1 0 17.4 24.5 36.1 94.5 85.8 294.1
27 10:00 12.5 68 7.48 6.8 2 6 1027.9 0 17.2 25.0 36.6 95.7 86.4 296.1
27 09:50 12.5 69 7.59 7.1 0 0 1013.1 0 17.5 24.6 36.4 95.4 86.7 297.4
27 09:40 12.1 72 7.72 7.2 4 6 1013.1 0 17.8 25.0 37.1 97.2 88.9 304.9
27 09:30 12.1 74 7.94 7.6 2 6 1027.9 0 18.2 25.9 38.6 101.1 92.9 318.9
27 09:20 12.1 76 8.15 8 0 4 1013.1 0 18.7 25.6 38.8 101.8 94.5 324.8
27 09:10 12 78 8.31 8.4 6 7 1013.1 0 19.1 25.9 39.5 103.7 96.8 332.7
27 09:00 12 80 8.53 8.7 7 11 1027.8 0 19.5 26.9 41.1 107.7 101.0 347.1
27 08:50 11.8 82 8.63 8.8 7 7 1013.1 0.6 19.8 26.5 40.9 107.5 101.4 348.6
27 08:40 11.5 84 8.68 8.9 9 11 1013.1 0.6 19.9 26.7 41.3 108.4 102.5 352.4
27 08:30 11.4 86 8.83 9.1 9 13 1027.7 0.6 20.2 27.6 42.7 111.8 105.9 364.3
27 08:20 11.3 87 8.88 9.2 9 11 1013.1 0.6 20.3 27.1 42.2 110.9 105.5 362.9
27 08:10 11 88 8.81 9.1 7 9 1013.1 0.6 20.2 27.1 42.1 110.6 104.9 360.9
27 08:00 10.8 89 8.8 9.1 7 11 1027.6 0.6 20.2 27.7 42.9 112.4 106.3 365.6
27 07:50 10.5 89 8.63 8.7 9 9 1013.1 0.6 19.8 26.9 41.6 109.3 103.1 354.5
27 07:40 10.3 90 8.62 8.7 7 9 1013.1 0.6 19.8 27.0 41.7 109.4 103.2 354.9
27 07:30 10 90 8.46 8.4 9 13 1027.3 0.6 19.5 27.3 41.8 109.6 102.6 352.6
27 07:20 9.7 90 8.3 8.1 9 11 1013.1 0.6 19.1 26.6 40.6 106.7 99.6 342.1
27 07:10 9.5 90 8.19 7.9 11 13 1013.1 0.6 18.9 26.5 40.3 105.7 98.3 337.7
27 07:00 9.3 91 8.18 7.9 11 13 1026.9 0.6 18.9 27.1 41.0 107.4 99.6 341.9
27 06:50 9.2 91 8.13 7.8 11 13 1013.1 0.6 18.8 26.5 40.2 105.4 97.9 336.1
27 06:40 9.1 91 8.08 7.7 9 9 1013.1 0.6 18.7 26.4 40.0 105.0 97.3 334.1
27 06:30 8.9 91 7.97 7.5 11 17 1026.5 0.6 18.5 26.8 40.3 105.5 97.1 333.2
27 06:20 8.7 91 7.87 7.3 15 15 1013.1 0.6 18.3 26.2 39.3 103.2 94.9 325.6
27 06:10 8.8 90 7.84 7.2 17 17 1013.1 0.6 18.2 26.1 39.2 102.7 94.4 323.8
27 06:00 8.9 90 7.89 7.4 15 19 1026 0.6 18.3 26.7 39.9 104.5 96.0 329.2
27 05:50 8.8 90 7.84 7.2 17 17 1013.1 0.6 18.2 26.1 39.2 102.7 94.4 323.8
27 05:40 8.7 89 7.7 7 15 17 1013.1 0.6 17.9 25.9 38.6 101.3 92.6 317.5
27 05:30 8.8 89 7.75 7.1 17 20 1025.6 0.6 18.0 26.4 39.4 103.0 94.1 322.7
27 05:10 8.8 88 7.66 6.9 13 15 1013.1 0.6 17.8 25.8 38.4 100.7 91.9 315.1
27 04:40 9.1 87 7.72 7 0 0 1013.1 0.6 17.9 25.8 38.5 101.0 92.4 316.8
27 04:30 9.1 87 7.72 7.1 2 6 1024.9 0.6 17.9 26.3 39.1 102.2 93.3 319.9
27 04:20 9.2 87 7.77 7.1 4 4 1013.1 0.6 18.0 25.9 38.7 101.4 92.9 318.8
27 04:10 9.7 87 8.02 7.6 6 7 1013.1 0.6 18.5 26.1 39.5 103.6 95.7 328.6
27 04:00 9.4 88 7.96 7.5 9 19 1024.8 0.6 18.4 26.6 39.9 104.5 96.2 330.2
27 03:50 8.8 87 7.58 6.7 9 11 1013.1 0.6 17.6 25.7 38.1 99.9 90.8 311.3
27 03:40 8.8 87 7.58 6.7 9 11 1013.1 0.6 17.6 25.7 38.1 99.9 90.8 311.3
27 03:30 9.1 87 7.72 7.1 9 13 1024.6 0.6 17.9 26.3 39.0 102.2 93.3 319.8
27 03:20 8.8 87 7.58 6.7 6 7 1013.1 0.6 17.6 25.7 38.1 99.9 90.8 311.3
27 03:10 8.7 88 7.61 6.8 9 11 1013.1 0.6 17.7 25.7 38.3 100.3 91.4 313.1
27 03:00 8.3 87 7.34 6.3 13 17 1024.4 0.4 17.1 25.8 37.8 99.0 89.0 304.7
27 02:50 8.2 86 7.21 6 13 15 1013.1 0.4 16.9 25.2 36.9 96.5 86.5 296.1
27 02:40 8.1 85 7.08 5.7 15 15 1013.1 0.4 16.6 25.0 36.4 95.2 84.9 290.3
27 02:30 8.5 84 7.17 6 11 17 1024.4 0.4 16.8 25.5 37.0 96.9 86.5 295.8
27 02:20 8.6 84 7.22 6 15 19 1013.1 0.4 16.9 25.1 36.7 96.2 86.2 295.0
27 02:10 8.8 84 7.31 6.2 11 13 1013.1 0.4 17.1 25.2 37.0 96.9 87.2 298.5
27 02:00 8.9 84 7.36 6.3 9 11 1024.5 0.4 17.2 25.7 37.6 98.5 88.6 303.3
27 01:50 8.9 82 7.19 6.1 11 11 1013.1 0.4 16.8 25.0 36.4 95.5 85.4 292.5
27 01:40 9.1 83 7.37 6.3 7 9 1013.1 0.4 17.2 25.2 37.1 97.2 87.6 300.2
27 01:30 9.5 82 7.47 6.6 11 17 1024.7 0.4 17.4 25.7 37.8 98.9 89.4 306.3
27 01:20 9.7 81 7.47 6.6 13 17 1013.1 0.4 17.4 25.2 37.2 97.5 88.3 302.6
27 01:10 9.9 80 7.47 6.6 7 9 1013.1 0.4 17.3 25.2 37.1 97.3 88.1 301.8
27 01:00 10 79 7.43 6.5 17 30 1024.6 0.4 17.3 25.5 37.4 97.9 88.3 302.4
27 00:50 9.8 80 7.42 6.5 7 9 1013.1 0.4 17.2 25.1 37.0 96.8 87.5 299.9
27 00:40 9.9 81 7.56 6.9 11 13 1013.1 0.4 17.5 25.3 37.5 98.2 89.3 306.0
27 00:30 9.6 78 7.15 6 13 17 1024.8 0.4 16.7 25.2 36.5 95.3 85.0 290.8
27 00:20 9.4 76 6.88 5.5 13 15 1013.1 0.4 16.1 24.4 35.0 91.5 80.8 276.3
27 00:10 9.8 73 6.77 5.2 6 7 1013.1 0.4 15.8 24.1 34.4 89.9 79.0 269.8
27 00:00 10.6 75 7.32 6.4 11 19 1024.7 0.4 17.0 25.2 36.7 96.0 86.2 295.0
26 23:50 9.8 75 6.96 5.7 11 13 1013.1 0.4 16.3 24.4 35.1 91.9 81.4 278.5
26 23:40 9.7 75 6.92 5.6 11 15 1013.1 0.4 16.2 24.3 35.0 91.6 81.0 277.0
26 23:30 9.6 76 6.96 5.6 13 17 1024.7 0.4 16.3 24.9 35.7 93.3 82.5 282.0
26 23:20 9.5 76 6.92 5.6 9 9 1013.1 0.4 16.2 24.4 35.1 91.8 81.2 277.8
26 23:10 10.1 73 6.9 5.6 11 13 1013.1 0.4 16.1 24.2 34.8 90.9 80.3 274.7
26 23:00 11.3 72 7.35 6.4 17 24 1024.6 0.4 17.0 25.0 36.5 95.4 85.8 293.8
26 22:50 11.2 73 7.4 6.5 15 22 1013.1 0.4 17.1 24.7 36.2 94.9 85.7 293.6
26 22:40 11.1 77 7.76 7.2 19 22 1013.1 0.4 17.9 25.3 37.7 98.9 90.5 310.7
26 22:30 10.4 82 7.9 7.5 13 22 1024.7 0.4 18.2 26.2 39.2 102.5 94.2 323.1
26 22:20 9.6 83 7.61 6.8 11 13 1013.1 0.4 17.7 25.5 37.8 99.2 90.3 309.6
26 22:10 9.5 81 7.38 6.5 11 13 1013.1 0.4 17.2 25.1 36.9 96.8 87.3 299.1
26 22:00 9.7 83 7.65 7 13 17 1024.8 0.4 17.7 26.0 38.5 100.7 91.6 314.1
26 21:50 9.7 84 7.75 7.1 15 17 1013.1 0.4 18.0 25.7 38.4 100.6 92.1 315.8
26 21:40 9.3 84 7.55 6.7 11 13 1013.1 0.4 17.5 25.5 37.7 98.9 89.8 307.9
26 21:30 9.2 84 7.5 6.6 11 15 1024.9 0.4 17.4 25.9 38.1 99.7 90.2 308.9
26 21:20 9.3 83 7.46 6.5 9 9 1013.1 0.4 17.4 25.3 37.4 97.9 88.6 303.7
26 21:10 9.6 81 7.42 6.5 11 13 1013.1 0.4 17.3 25.2 37.1 97.1 87.7 300.6
26 21:00 9.8 79 7.33 6.3 9 15 1024.9 0.4 17.0 25.4 37.1 97.1 87.2 298.6
26 20:50 9.7 80 7.38 6.4 11 13 1013.1 0.4 17.2 25.1 36.8 96.5 87.1 298.4

Last Refresh: 27-Sep-2020 14:04:01

Most of the information presented on this site is sourced from the Bureau of Meteorology.  Copyright in all material sourced from the Bureau of Meteorology resides with the Commonwealth of Australia.